Time,TemperatureF,DewpointF,PressureIn,WindDirection,WindDirectionDegrees,WindSpeedMPH,WindSpeedGustMPH,Humidity,HourlyPrecipIn,Conditions,Clouds,dailyrainin,SoftwareType,DateUTC
2013-01-12 00:02:00,29.0,26.0,-100.00,ENE,59,5.0,7.0,87,-99.99,,,-99.99,,2013-01-12 08:02:00,
2013-01-12 00:11:00,29.0,26.0,-100.00,ENE,62,4.0,7.0,88,-99.99,,,-99.99,,2013-01-12 08:11:00,
2013-01-12 00:22:00,29.0,26.0,-100.00,NE,36,6.0,9.0,88,-99.99,,,-99.99,,2013-01-12 08:22:00,
2013-01-12 00:32:00,29.0,26.0,-100.00,NE,42,5.0,7.0,88,-99.99,,,-99.99,,2013-01-12 08:32:00,
2013-01-12 00:42:00,29.0,26.0,-100.00,ENE,61,4.0,7.0,87,-99.99,,,-99.99,,2013-01-12 08:42:00,
2013-01-12 00:52:00,28.0,25.0,-100.00,NE,45,5.0,7.0,87,-99.99,,,-99.99,,2013-01-12 08:52:00,
2013-01-12 01:02:00,28.0,25.0,-100.00,NE,45,5.0,7.0,87,-99.99,,,-99.99,,2013-01-12 09:02:00,
2013-01-12 01:11:00,29.0,26.0,-100.00,NE,49,5.0,8.0,88,-99.99,,,-99.99,,2013-01-12 09:11:00,
2013-01-12 01:32:00,28.0,25.0,-100.00,NE,49,4.0,7.0,88,-99.99,,,-99.99,,2013-01-12 09:32:00,
2013-01-12 01:42:00,29.0,25.0,-100.00,NE,51,4.0,6.0,86,-99.99,,,-99.99,,2013-01-12 09:42:00,
2013-01-12 01:52:00,29.0,25.0,-100.00,NE,51,4.0,6.0,86,-99.99,,,-99.99,,2013-01-12 09:52:00,
2013-01-12 02:02:00,28.0,25.0,-100.00,ENE,65,3.0,5.0,87,-99.99,,,-99.99,,2013-01-12 10:02:00,
2013-01-12 02:11:00,28.0,25.0,-100.00,ENE,66,5.0,7.0,88,-99.99,,,-99.99,,2013-01-12 10:11:00,
2013-01-12 02:22:00,29.0,26.0,-100.00,NE,41,5.0,7.0,87,-99.99,,,-99.99,,2013-01-12 10:22:00,
2013-01-12 02:32:00,30.0,26.0,-100.00,NNE,32,6.0,9.0,85,-99.99,,,-99.99,,2013-01-12 10:32:00,
2013-01-12 02:42:00,30.0,25.0,-100.00,ENE,63,4.0,7.0,82,-99.99,,,-99.99,,2013-01-12 10:42:00,
2013-01-12 02:52:00,30.0,25.0,-100.00,NE,55,5.0,7.0,83,-99.99,,,-99.99,,2013-01-12 10:52:00,
2013-01-12 03:02:00,30.0,26.0,-100.00,NE,51,5.0,8.0,84,-99.99,,,-99.99,,2013-01-12 11:02:00,
2013-01-12 03:12:00,30.0,25.0,-100.00,NE,51,3.0,5.0,83,-99.99,,,-99.99,,2013-01-12 11:12:00,
2013-01-12 03:22:00,30.0,25.0,-100.00,NE,47,2.0,4.0,82,-99.99,,,-99.99,,2013-01-12 11:22:00,
2013-01-12 03:32:00,30.0,26.0,-100.00,NE,48,4.0,7.0,84,-99.99,,,-99.99,,2013-01-12 11:32:00,
2013-01-12 03:42:00,31.0,26.0,-100.00,NE,46,4.0,7.0,83,-99.99,,,-99.99,,2013-01-12 11:42:00,
2013-01-12 03:52:00,31.0,26.0,-100.00,NE,43,5.0,6.0,82,-99.99,,,-99.99,,2013-01-12 11:52:00,
2013-01-12 04:02:00,31.0,26.0,-100.00,NE,55,5.0,7.0,83,-99.99,,,-99.99,,2013-01-12 12:02:00,
2013-01-12 04:11:00,31.0,27.0,-100.00,NE,50,4.0,7.0,84,-99.99,,,-99.99,,2013-01-12 12:11:00,
2013-01-12 04:22:00,31.0,27.0,-100.00,ENE,58,4.0,5.0,84,-99.99,,,-99.99,,2013-01-12 12:22:00,
2013-01-12 04:32:00,30.0,26.0,-100.00,ENE,62,4.0,6.0,85,-99.99,,,-99.99,,2013-01-12 12:32:00,
2013-01-12 04:42:00,30.0,26.0,-100.00,ENE,62,4.0,6.0,85,-99.99,,,-99.99,,2013-01-12 12:42:00,
2013-01-12 04:52:00,29.0,26.0,-100.00,ENE,57,4.0,7.0,87,-99.99,,,-99.99,,2013-01-12 12:52:00,
2013-01-12 05:02:00,28.0,25.0,-100.00,NE,52,5.0,7.0,88,-99.99,,,-99.99,,2013-01-12 13:02:00,
2013-01-12 05:12:00,28.0,25.0,-100.00,NE,41,5.0,6.0,88,-99.99,,,-99.99,,2013-01-12 13:12:00,
2013-01-12 05:22:00,28.0,24.0,-100.00,NE,41,4.0,6.0,86,-99.99,,,-99.99,,2013-01-12 13:22:00,
2013-01-12 05:32:00,27.0,23.0,-100.00,ENE,62,4.0,6.0,86,-99.99,,,-99.99,,2013-01-12 13:32:00,
2013-01-12 05:52:00,27.0,24.0,-100.00,NE,53,5.0,8.0,87,-99.99,,,-99.99,,2013-01-12 13:52:00,
2013-01-12 06:02:00,27.0,24.0,-100.00,NE,53,5.0,8.0,87,-99.99,,,-99.99,,2013-01-12 14:02:00,
2013-01-12 06:12:00,27.0,23.0,-100.00,NE,45,6.0,8.0,86,-99.99,,,-99.99,,2013-01-12 14:12:00,
2013-01-12 06:22:00,27.0,23.0,-100.00,ENE,68,3.0,6.0,85,-99.99,,,-99.99,,2013-01-12 14:22:00,
2013-01-12 06:32:00,26.0,22.0,-100.00,NE,49,5.0,6.0,85,-99.99,,,-99.99,,2013-01-12 14:32:00,
2013-01-12 06:43:00,26.0,22.0,-100.00,NE,52,4.0,7.0,86,-99.99,,,-99.99,,2013-01-12 14:43:00,
2013-01-12 06:53:00,26.0,22.0,-100.00,NE,45,5.0,6.0,86,-99.99,,,-99.99,,2013-01-12 14:53:00,
2013-01-12 07:12:00,25.0,22.0,-100.00,NE,36,5.0,7.0,87,-99.99,,,-99.99,,2013-01-12 15:12:00,
2013-01-12 07:33:00,25.0,21.0,-100.00,NE,52,4.0,6.0,86,-99.99,,,-99.99,,2013-01-12 15:33:00,
2013-01-12 07:52:00,25.0,22.0,-100.00,ENE,58,5.0,6.0,87,-99.99,,,-99.99,,2013-01-12 15:52:00,
2013-01-12 08:02:00,25.0,22.0,-100.00,NE,51,5.0,7.0,87,-99.99,,,-99.99,,2013-01-12 16:02:00,
2013-01-12 08:12:00,25.0,22.0,-100.00,NE,48,5.0,7.0,87,-99.99,,,-99.99,,2013-01-12 16:12:00,
2013-01-12 08:22:00,27.0,23.0,-100.00,NE,47,5.0,8.0,84,-99.99,,,-99.99,,2013-01-12 16:22:00,
2013-01-12 08:32:00,27.0,22.0,-100.00,ENE,70,4.0,7.0,82,-99.99,,,-99.99,,2013-01-12 16:32:00,
2013-01-12 08:42:00,29.0,23.0,-100.00,NE,56,5.0,7.0,79,-99.99,,,-99.99,,2013-01-12 16:42:00,
2013-01-12 08:52:00,30.0,24.0,-100.00,NE,51,5.0,8.0,77,-99.99,,,-99.99,,2013-01-12 16:52:00,
2013-01-12 09:02:00,32.0,24.0,-100.00,NE,53,5.0,6.0,71,-99.99,,,-99.99,,2013-01-12 17:02:00,
2013-01-12 09:12:00,34.0,25.0,-100.00,ENE,58,4.0,5.0,68,-99.99,,,-99.99,,2013-01-12 17:12:00,
2013-01-12 09:22:00,37.0,26.0,-100.00,ENE,57,2.0,4.0,64,-99.99,,,-99.99,,2013-01-12 17:22:00,
2013-01-12 09:32:00,42.0,25.0,-100.00,East,96,1.0,2.0,51,-99.99,,,-99.99,,2013-01-12 17:32:00,
2013-01-12 09:42:00,42.0,25.0,-100.00,East,96,1.0,2.0,51,-99.99,,,-99.99,,2013-01-12 17:42:00,
2013-01-12 09:53:00,45.0,25.0,-100.00,ESE,104,1.0,2.0,45,-99.99,,,-99.99,,2013-01-12 17:53:00,
2013-01-12 10:02:00,45.0,25.0,-100.00,ESE,104,1.0,2.0,45,-99.99,,,-99.99,,2013-01-12 18:02:00,
2013-01-12 10:12:00,49.0,23.0,-100.00,SSW,211,1.0,3.0,35,-99.99,,,-99.99,,2013-01-12 18:12:00,
2013-01-12 10:22:00,51.0,20.0,-100.00,South,177,1.0,3.0,29,-99.99,,,-99.99,,2013-01-12 18:22:00,
2013-01-12 10:33:00,52.0,17.0,-100.00,SSW,197,2.0,4.0,25,-99.99,,,-99.99,,2013-01-12 18:33:00,
2013-01-12 10:42:00,52.0,16.0,-100.00,SW,214,3.0,5.0,24,-99.99,,,-99.99,,2013-01-12 18:42:00,
2013-01-12 10:52:00,52.0,17.0,-100.00,SW,217,4.0,6.0,25,-99.99,,,-99.99,,2013-01-12 18:52:00,
2013-01-12 11:02:00,52.0,16.0,-100.00,SW,220,4.0,7.0,24,-99.99,,,-99.99,,2013-01-12 19:02:00,
2013-01-12 11:12:00,52.0,16.0,-100.00,SW,236,4.0,8.0,24,-99.99,,,-99.99,,2013-01-12 19:12:00,
2013-01-12 11:22:00,53.0,17.0,-100.00,SW,220,4.0,8.0,24,-99.99,,,-99.99,,2013-01-12 19:22:00,
2013-01-12 11:32:00,53.0,16.0,-100.00,South,175,3.0,7.0,23,-99.99,,,-99.99,,2013-01-12 19:32:00,
2013-01-12 11:42:00,54.0,18.0,-100.00,SSW,205,2.0,6.0,24,-99.99,,,-99.99,,2013-01-12 19:42:00,
2013-01-12 11:52:00,54.0,19.0,-100.00,SSW,204,5.0,10.0,25,-99.99,,,-99.99,,2013-01-12 19:52:00,
2013-01-12 12:02:00,53.0,20.0,-100.00,SSW,213,7.0,13.0,27,-99.99,,,-99.99,,2013-01-12 20:02:00,
2013-01-12 12:12:00,52.0,20.0,-100.00,SW,223,7.0,12.0,28,-99.99,,,-99.99,,2013-01-12 20:12:00,
2013-01-12 12:22:00,53.0,19.0,-100.00,SW,234,5.0,10.0,26,-99.99,,,-99.99,,2013-01-12 20:22:00,
2013-01-12 12:32:00,53.0,19.0,-100.00,SW,221,5.0,9.0,26,-99.99,,,-99.99,,2013-01-12 20:32:00,
2013-01-12 12:42:00,53.0,20.0,-100.00,SW,227,8.0,12.0,27,-99.99,,,-99.99,,2013-01-12 20:42:00,
2013-01-12 12:53:00,52.0,20.0,-100.00,SW,224,8.0,13.0,28,-99.99,,,-99.99,,2013-01-12 20:53:00,
2013-01-12 13:02:00,53.0,22.0,-100.00,SW,218,7.0,13.0,29,-99.99,,,-99.99,,2013-01-12 21:02:00,
2013-01-12 13:12:00,53.0,21.0,-100.00,SW,218,8.0,13.0,28,-99.99,,,-99.99,,2013-01-12 21:12:00,
2013-01-12 13:22:00,52.0,22.0,-100.00,SW,216,8.0,13.0,31,-99.99,,,-99.99,,2013-01-12 21:22:00,
2013-01-12 13:32:00,52.0,23.0,-100.00,SW,221,8.0,13.0,32,-99.99,,,-99.99,,2013-01-12 21:32:00,
2013-01-12 13:42:00,52.0,22.0,-100.00,SW,224,8.0,12.0,30,-99.99,,,-99.99,,2013-01-12 21:42:00,
2013-01-12 13:52:00,52.0,21.0,-100.00,SW,227,8.0,14.0,29,-99.99,,,-99.99,,2013-01-12 21:52:00,
2013-01-12 14:02:00,52.0,22.0,-100.00,SW,216,7.0,12.0,31,-99.99,,,-99.99,,2013-01-12 22:02:00,
2013-01-12 14:12:00,53.0,22.0,-100.00,SSW,212,6.0,11.0,30,-99.99,,,-99.99,,2013-01-12 22:12:00,
2013-01-12 14:22:00,52.0,22.0,-100.00,SSW,208,8.0,12.0,30,-99.99,,,-99.99,,2013-01-12 22:22:00,
2013-01-12 14:32:00,52.0,22.0,-100.00,SW,226,8.0,14.0,30,-99.99,,,-99.99,,2013-01-12 22:32:00,
2013-01-12 14:42:00,52.0,22.0,-100.00,SW,227,8.0,13.0,31,-99.99,,,-99.99,,2013-01-12 22:42:00,
2013-01-12 14:52:00,52.0,22.0,-100.00,SW,229,7.0,11.0,31,-99.99,,,-99.99,,2013-01-12 22:52:00,
2013-01-12 15:02:00,52.0,24.0,-100.00,SW,233,8.0,12.0,33,-99.99,,,-99.99,,2013-01-12 23:02:00,
2013-01-12 15:12:00,52.0,24.0,-100.00,SW,231,7.0,13.0,33,-99.99,,,-99.99,,2013-01-12 23:12:00,
2013-01-12 15:22:00,52.0,24.0,-100.00,SW,231,7.0,13.0,33,-99.99,,,-99.99,,2013-01-12 23:22:00,
2013-01-12 15:32:00,52.0,24.0,-100.00,SW,226,7.0,11.0,33,-99.99,,,-99.99,,2013-01-12 23:32:00,
2013-01-12 15:42:00,52.0,24.0,-100.00,SW,226,7.0,11.0,33,-99.99,,,-99.99,,2013-01-12 23:42:00,
2013-01-12 15:53:00,52.0,24.0,-100.00,SW,225,6.0,10.0,33,-99.99,,,-99.99,,2013-01-12 23:53:00,
2013-01-12 16:02:00,52.0,24.0,-100.00,SW,226,6.0,10.0,33,-99.99,,,-99.99,,2013-01-13 00:02:00,
2013-01-12 16:12:00,52.0,23.0,-100.00,SSW,211,5.0,8.0,32,-99.99,,,-99.99,,2013-01-13 00:12:00,
2013-01-12 16:22:00,52.0,24.0,-100.00,SSW,211,5.0,8.0,33,-99.99,,,-99.99,,2013-01-13 00:22:00,
2013-01-12 16:32:00,51.0,24.0,-100.00,SW,216,5.0,9.0,35,-99.99,,,-99.99,,2013-01-13 00:32:00,
2013-01-12 16:42:00,51.0,24.0,-100.00,SW,216,5.0,9.0,35,-99.99,,,-99.99,,2013-01-13 00:42:00,
2013-01-12 16:52:00,51.0,25.0,-100.00,SW,223,4.0,7.0,36,-99.99,,,-99.99,,2013-01-13 00:52:00,
2013-01-12 17:02:00,51.0,25.0,-100.00,SW,223,4.0,7.0,36,-99.99,,,-99.99,,2013-01-13 01:02:00,
2013-01-12 17:12:00,50.0,26.0,-100.00,SSW,208,4.0,7.0,39,-99.99,,,-99.99,,2013-01-13 01:12:00,
2013-01-12 17:22:00,50.0,27.0,-100.00,SSW,211,2.0,4.0,41,-99.99,,,-99.99,,2013-01-13 01:22:00,
2013-01-12 17:32:00,49.0,27.0,-100.00,SSE,148,0.0,1.0,43,-99.99,,,-99.99,,2013-01-13 01:32:00,
2013-01-12 17:42:00,47.0,28.0,-100.00,NE,50,1.0,3.0,47,-99.99,,,-99.99,,2013-01-13 01:42:00,
2013-01-12 17:52:00,42.0,27.0,-100.00,NE,45,4.0,6.0,56,-99.99,,,-99.99,,2013-01-13 01:52:00,
2013-01-12 18:02:00,42.0,27.0,-100.00,NE,45,4.0,6.0,56,-99.99,,,-99.99,,2013-01-13 02:02:00,
2013-01-12 18:12:00,41.0,27.0,-100.00,NE,36,4.0,5.0,58,-99.99,,,-99.99,,2013-01-13 02:12:00,
2013-01-12 18:32:00,39.0,27.0,-100.00,NE,37,4.0,6.0,61,-99.99,,,-99.99,,2013-01-13 02:32:00,
2013-01-12 18:42:00,39.0,27.0,-100.00,NE,42,4.0,7.0,63,-99.99,,,-99.99,,2013-01-13 02:42:00,
2013-01-12 18:52:00,38.0,27.0,-100.00,NE,40,4.0,7.0,64,-99.99,,,-99.99,,2013-01-13 02:52:00,
2013-01-12 19:02:00,37.0,26.0,-100.00,NE,42,5.0,8.0,65,-99.99,,,-99.99,,2013-01-13 03:02:00,
2013-01-12 19:12:00,37.0,27.0,-100.00,NE,49,5.0,8.0,67,-99.99,,,-99.99,,2013-01-13 03:12:00,
2013-01-12 19:22:00,36.0,26.0,-100.00,NE,55,4.0,6.0,68,-99.99,,,-99.99,,2013-01-13 03:22:00,
2013-01-12 19:32:00,35.0,26.0,-100.00,NE,55,2.0,5.0,70,-99.99,,,-99.99,,2013-01-13 03:32:00,
2013-01-12 19:52:00,34.0,26.0,-100.00,NE,54,4.0,6.0,72,-99.99,,,-99.99,,2013-01-13 03:52:00,
2013-01-12 20:02:00,34.0,26.0,-100.00,NE,54,4.0,6.0,72,-99.99,,,-99.99,,2013-01-13 04:02:00,
2013-01-12 20:12:00,34.0,26.0,-100.00,ENE,59,4.0,6.0,73,-99.99,,,-99.99,,2013-01-13 04:12:00,
2013-01-12 20:22:00,33.0,26.0,-100.00,ENE,58,4.0,6.0,75,-99.99,,,-99.99,,2013-01-13 04:22:00,
2013-01-12 20:32:00,32.0,25.0,-100.00,ENE,59,5.0,6.0,76,-99.99,,,-99.99,,2013-01-13 04:32:00,
2013-01-12 20:42:00,31.0,25.0,-100.00,NE,54,5.0,7.0,79,-99.99,,,-99.99,,2013-01-13 04:42:00,
2013-01-12 20:52:00,32.0,26.0,-100.00,ENE,58,5.0,6.0,79,-99.99,,,-99.99,,2013-01-13 04:52:00,
2013-01-12 21:03:00,31.0,26.0,-100.00,ENE,58,5.0,6.0,80,-99.99,,,-99.99,,2013-01-13 05:03:00,
2013-01-12 21:12:00,31.0,26.0,-100.00,NE,54,5.0,6.0,80,-99.99,,,-99.99,,2013-01-13 05:12:00,
2013-01-12 21:22:00,31.0,26.0,-100.00,ENE,57,4.0,5.0,81,-99.99,,,-99.99,,2013-01-13 05:22:00,
2013-01-12 21:32:00,30.0,26.0,-100.00,ENE,57,5.0,6.0,84,-99.99,,,-99.99,,2013-01-13 05:32:00,
2013-01-12 21:52:00,30.0,26.0,-100.00,ENE,58,4.0,6.0,84,-99.99,,,-99.99,,2013-01-13 05:52:00,
2013-01-12 22:02:00,29.0,25.0,-100.00,NE,54,6.0,8.0,85,-99.99,,,-99.99,,2013-01-13 06:02:00,
2013-01-12 22:12:00,29.0,25.0,-100.00,NE,49,6.0,8.0,86,-99.99,,,-99.99,,2013-01-13 06:12:00,
2013-01-12 22:22:00,29.0,25.0,-100.00,NE,55,4.0,6.0,86,-99.99,,,-99.99,,2013-01-13 06:22:00,
2013-01-12 22:32:00,29.0,25.0,-100.00,ENE,60,4.0,6.0,86,-99.99,,,-99.99,,2013-01-13 06:32:00,
2013-01-12 22:42:00,29.0,25.0,-100.00,NE,54,5.0,7.0,86,-99.99,,,-99.99,,2013-01-13 06:42:00,
2013-01-12 22:52:00,29.0,26.0,-100.00,ENE,59,4.0,5.0,87,-99.99,,,-99.99,,2013-01-13 06:52:00,
2013-01-12 23:02:00,28.0,25.0,-100.00,ENE,60,4.0,6.0,87,-99.99,,,-99.99,,2013-01-13 07:02:00,
2013-01-12 23:12:00,29.0,26.0,-100.00,NE,51,5.0,7.0,87,-99.99,,,-99.99,,2013-01-13 07:12:00,
2013-01-12 23:32:00,29.0,26.0,-100.00,NE,53,5.0,8.0,87,-99.99,,,-99.99,,2013-01-13 07:32:00,
2013-01-12 23:52:00,28.0,24.0,-100.00,ENE,61,5.0,7.0,86,-99.99,,,-99.99,,2013-01-13 07:52:00,